sensor_id;sensor_type;location;lat;lon;timestamp;P1;durP1;ratioP1;P2;durP2;ratioP2
38901;SDS011;24661;53.566;9.910;2023-08-06T00:00:15;3.43;;;3.13;;
38901;SDS011;24661;53.566;9.910;2023-08-06T00:02:41;3.70;;;2.50;;
38901;SDS011;24661;53.566;9.910;2023-08-06T00:05:06;4.77;;;2.93;;
38901;SDS011;24661;53.566;9.910;2023-08-06T00:07:32;4.70;;;3.10;;
38901;SDS011;24661;53.566;9.910;2023-08-06T00:09:58;4.37;;;3.07;;
38901;SDS011;24661;53.566;9.910;2023-08-06T00:12:23;4.40;;;2.47;;
38901;SDS011;24661;53.566;9.910;2023-08-06T00:14:52;2.97;;;2.67;;
38901;SDS011;24661;53.566;9.910;2023-08-06T00:17:18;2.60;;;2.40;;
38901;SDS011;24661;53.566;9.910;2023-08-06T00:19:44;3.00;;;2.70;;
38901;SDS011;24661;53.566;9.910;2023-08-06T00:22:10;2.90;;;2.60;;
38901;SDS011;24661;53.566;9.910;2023-08-06T00:24:36;4.07;;;2.30;;
38901;SDS011;24661;53.566;9.910;2023-08-06T00:27:01;2.83;;;2.40;;
38901;SDS011;24661;53.566;9.910;2023-08-06T00:29:27;3.70;;;2.37;;
38901;SDS011;24661;53.566;9.910;2023-08-06T00:31:53;4.07;;;2.83;;
38901;SDS011;24661;53.566;9.910;2023-08-06T00:34:19;4.13;;;2.63;;
38901;SDS011;24661;53.566;9.910;2023-08-06T00:36:44;3.13;;;2.70;;
38901;SDS011;24661;53.566;9.910;2023-08-06T00:39:10;3.83;;;2.50;;
38901;SDS011;24661;53.566;9.910;2023-08-06T00:41:36;3.07;;;2.47;;
38901;SDS011;24661;53.566;9.910;2023-08-06T00:44:02;3.03;;;2.73;;
38901;SDS011;24661;53.566;9.910;2023-08-06T00:46:27;4.07;;;2.80;;
38901;SDS011;24661;53.566;9.910;2023-08-06T00:48:53;3.77;;;3.03;;
38901;SDS011;24661;53.566;9.910;2023-08-06T00:51:19;3.00;;;2.70;;
38901;SDS011;24661;53.566;9.910;2023-08-06T00:53:46;3.90;;;2.60;;
38901;SDS011;24661;53.566;9.910;2023-08-06T00:56:12;4.57;;;3.07;;
38901;SDS011;24661;53.566;9.910;2023-08-06T00:58:39;2.90;;;2.70;;
38901;SDS011;24661;53.566;9.910;2023-08-06T01:01:05;2.83;;;2.63;;
38901;SDS011;24661;53.566;9.910;2023-08-06T01:03:31;4.10;;;3.53;;
38901;SDS011;24661;53.566;9.910;2023-08-06T01:05:57;4.20;;;3.23;;
38901;SDS011;24661;53.566;9.910;2023-08-06T01:08:45;4.00;;;2.90;;
38901;SDS011;24661;53.566;9.910;2023-08-06T01:14:54;4.90;;;3.60;;
38901;SDS011;24661;53.566;9.910;2023-08-06T01:17:21;3.60;;;3.30;;
38901;SDS011;24661;53.566;9.910;2023-08-06T01:19:48;4.80;;;3.40;;
38901;SDS011;24661;53.566;9.910;2023-08-06T01:22:13;6.10;;;3.77;;
38901;SDS011;24661;53.566;9.910;2023-08-06T01:24:46;4.43;;;3.50;;
38901;SDS011;24661;53.566;9.910;2023-08-06T01:29:49;5.00;;;3.20;;
38901;SDS011;24661;53.566;9.910;2023-08-06T01:32:21;6.70;;;3.27;;
38901;SDS011;24661;53.566;9.910;2023-08-06T01:34:49;4.37;;;3.73;;
38901;SDS011;24661;53.566;9.910;2023-08-06T01:37:15;3.73;;;3.43;;
38901;SDS011;24661;53.566;9.910;2023-08-06T01:39:44;4.50;;;3.40;;
38901;SDS011;24661;53.566;9.910;2023-08-06T01:42:09;5.70;;;4.13;;
38901;SDS011;24661;53.566;9.910;2023-08-06T01:44:35;4.17;;;3.77;;
38901;SDS011;24661;53.566;9.910;2023-08-06T01:47:01;6.43;;;3.87;;
38901;SDS011;24661;53.566;9.910;2023-08-06T01:49:26;4.97;;;4.13;;
38901;SDS011;24661;53.566;9.910;2023-08-06T01:51:52;4.37;;;3.97;;
38901;SDS011;24661;53.566;9.910;2023-08-06T01:54:17;6.10;;;4.40;;
38901;SDS011;24661;53.566;9.910;2023-08-06T01:56:43;4.40;;;4.00;;
38901;SDS011;24661;53.566;9.910;2023-08-06T01:59:09;6.73;;;5.20;;
38901;SDS011;24661;53.566;9.910;2023-08-06T02:01:34;6.03;;;4.77;;
38901;SDS011;24661;53.566;9.910;2023-08-06T02:04:00;5.87;;;4.53;;
38901;SDS011;24661;53.566;9.910;2023-08-06T02:06:25;7.50;;;4.60;;
38901;SDS011;24661;53.566;9.910;2023-08-06T02:08:51;5.53;;;4.50;;
38901;SDS011;24661;53.566;9.910;2023-08-06T02:11:16;5.43;;;4.40;;
38901;SDS011;24661;53.566;9.910;2023-08-06T02:13:43;6.33;;;4.23;;
38901;SDS011;24661;53.566;9.910;2023-08-06T02:16:09;5.57;;;4.50;;
38901;SDS011;24661;53.566;9.910;2023-08-06T02:18:34;6.43;;;4.63;;
38901;SDS011;24661;53.566;9.910;2023-08-06T02:21:00;5.60;;;4.47;;
38901;SDS011;24661;53.566;9.910;2023-08-06T02:23:26;6.97;;;4.37;;
38901;SDS011;24661;53.566;9.910;2023-08-06T02:26:01;5.27;;;4.60;;
38901;SDS011;24661;53.566;9.910;2023-08-06T02:28:28;6.53;;;4.40;;
38901;SDS011;24661;53.566;9.910;2023-08-06T02:30:54;5.07;;;4.27;;
38901;SDS011;24661;53.566;9.910;2023-08-06T02:33:20;6.20;;;4.63;;
38901;SDS011;24661;53.566;9.910;2023-08-06T02:35:46;4.00;;;3.60;;
38901;SDS011;24661;53.566;9.910;2023-08-06T02:38:11;5.13;;;4.23;;
38901;SDS011;24661;53.566;9.910;2023-08-06T02:40:42;5.40;;;4.80;;
38901;SDS011;24661;53.566;9.910;2023-08-06T02:43:11;7.00;;;4.43;;
38901;SDS011;24661;53.566;9.910;2023-08-06T02:45:37;4.80;;;4.33;;
38901;SDS011;24661;53.566;9.910;2023-08-06T02:48:03;7.40;;;4.70;;
38901;SDS011;24661;53.566;9.910;2023-08-06T02:50:29;7.70;;;4.80;;
38901;SDS011;24661;53.566;9.910;2023-08-06T02:52:54;7.63;;;5.50;;
38901;SDS011;24661;53.566;9.910;2023-08-06T02:55:20;7.33;;;4.87;;
38901;SDS011;24661;53.566;9.910;2023-08-06T02:57:46;5.97;;;4.93;;
38901;SDS011;24661;53.566;9.910;2023-08-06T03:00:11;7.93;;;5.37;;
38901;SDS011;24661;53.566;9.910;2023-08-06T03:02:38;5.30;;;4.60;;
38901;SDS011;24661;53.566;9.910;2023-08-06T03:05:04;9.27;;;6.27;;
38901;SDS011;24661;53.566;9.910;2023-08-06T03:07:31;7.70;;;5.47;;
38901;SDS011;24661;53.566;9.910;2023-08-06T03:09:58;8.70;;;6.10;;
38901;SDS011;24661;53.566;9.910;2023-08-06T03:12:26;6.87;;;5.27;;
38901;SDS011;24661;53.566;9.910;2023-08-06T03:14:51;14.80;;;5.90;;
38901;SDS011;24661;53.566;9.910;2023-08-06T03:17:17;6.33;;;5.60;;
38901;SDS011;24661;53.566;9.910;2023-08-06T03:19:42;6.30;;;5.60;;
38901;SDS011;24661;53.566;9.910;2023-08-06T03:22:08;7.10;;;5.47;;
38901;SDS011;24661;53.566;9.910;2023-08-06T03:24:33;5.83;;;5.13;;
38901;SDS011;24661;53.566;9.910;2023-08-06T03:26:59;6.43;;;5.57;;
38901;SDS011;24661;53.566;9.910;2023-08-06T03:29:24;8.47;;;5.63;;
38901;SDS011;24661;53.566;9.910;2023-08-06T03:31:50;7.80;;;5.97;;
38901;SDS011;24661;53.566;9.910;2023-08-06T03:34:17;9.47;;;5.30;;
38901;SDS011;24661;53.566;9.910;2023-08-06T03:36:42;7.03;;;5.17;;
38901;SDS011;24661;53.566;9.910;2023-08-06T03:39:08;7.67;;;5.80;;
38901;SDS011;24661;53.566;9.910;2023-08-06T03:41:33;8.40;;;5.37;;
38901;SDS011;24661;53.566;9.910;2023-08-06T03:43:59;6.83;;;4.93;;
38901;SDS011;24661;53.566;9.910;2023-08-06T03:46:27;7.63;;;5.60;;
38901;SDS011;24661;53.566;9.910;2023-08-06T03:48:53;8.23;;;5.40;;
38901;SDS011;24661;53.566;9.910;2023-08-06T03:51:18;6.83;;;5.37;;
38901;SDS011;24661;53.566;9.910;2023-08-06T03:53:44;6.03;;;5.07;;
38901;SDS011;24661;53.566;9.910;2023-08-06T03:56:11;5.60;;;4.83;;
38901;SDS011;24661;53.566;9.910;2023-08-06T03:58:36;6.07;;;5.47;;
38901;SDS011;24661;53.566;9.910;2023-08-06T04:01:02;8.07;;;5.43;;
38901;SDS011;24661;53.566;9.910;2023-08-06T04:03:28;6.20;;;5.27;;
38901;SDS011;24661;53.566;9.910;2023-08-06T04:05:54;8.57;;;5.10;;
38901;SDS011;24661;53.566;9.910;2023-08-06T04:08:20;6.27;;;4.50;;
38901;SDS011;24661;53.566;9.910;2023-08-06T04:10:48;7.37;;;5.17;;
38901;SDS011;24661;53.566;9.910;2023-08-06T04:13:15;11.80;;;6.10;;
38901;SDS011;24661;53.566;9.910;2023-08-06T04:15:40;6.97;;;5.00;;
38901;SDS011;24661;53.566;9.910;2023-08-06T04:18:06;6.37;;;5.47;;
38901;SDS011;24661;53.566;9.910;2023-08-06T04:20:31;8.60;;;6.10;;
38901;SDS011;24661;53.566;9.910;2023-08-06T04:22:57;5.10;;;4.30;;
38901;SDS011;24661;53.566;9.910;2023-08-06T04:25:22;6.33;;;5.17;;
38901;SDS011;24661;53.566;9.910;2023-08-06T04:27:48;8.17;;;5.77;;
38901;SDS011;24661;53.566;9.910;2023-08-06T04:30:14;9.17;;;4.80;;
38901;SDS011;24661;53.566;9.910;2023-08-06T04:32:39;5.87;;;5.23;;
38901;SDS011;24661;53.566;9.910;2023-08-06T04:35:05;5.47;;;4.73;;
38901;SDS011;24661;53.566;9.910;2023-08-06T04:37:31;8.17;;;4.77;;
38901;SDS011;24661;53.566;9.910;2023-08-06T04:39:57;6.13;;;4.33;;
38901;SDS011;24661;53.566;9.910;2023-08-06T04:42:23;8.90;;;4.47;;
38901;SDS011;24661;53.566;9.910;2023-08-06T04:44:48;8.60;;;4.87;;
38901;SDS011;24661;53.566;9.910;2023-08-06T04:47:14;8.60;;;4.30;;
38901;SDS011;24661;53.566;9.910;2023-08-06T04:49:40;9.93;;;5.20;;
38901;SDS011;24661;53.566;9.910;2023-08-06T04:52:05;10.93;;;5.33;;
38901;SDS011;24661;53.566;9.910;2023-08-06T04:54:31;8.70;;;4.53;;
38901;SDS011;24661;53.566;9.910;2023-08-06T04:56:56;6.40;;;4.30;;
38901;SDS011;24661;53.566;9.910;2023-08-06T04:59:22;5.70;;;4.30;;
38901;SDS011;24661;53.566;9.910;2023-08-06T05:05:09;6.93;;;4.47;;
38901;SDS011;24661;53.566;9.910;2023-08-06T05:07:35;6.27;;;4.70;;
38901;SDS011;24661;53.566;9.910;2023-08-06T05:10:01;8.07;;;4.67;;
38901;SDS011;24661;53.566;9.910;2023-08-06T05:12:28;6.63;;;5.00;;
38901;SDS011;24661;53.566;9.910;2023-08-06T05:14:53;8.87;;;4.90;;
38901;SDS011;24661;53.566;9.910;2023-08-06T05:17:19;8.10;;;5.30;;
38901;SDS011;24661;53.566;9.910;2023-08-06T05:19:44;6.30;;;4.97;;
38901;SDS011;24661;53.566;9.910;2023-08-06T05:22:10;9.70;;;5.73;;
38901;SDS011;24661;53.566;9.910;2023-08-06T05:24:35;10.23;;;5.27;;
38901;SDS011;24661;53.566;9.910;2023-08-06T05:27:01;7.27;;;5.13;;
38901;SDS011;24661;53.566;9.910;2023-08-06T05:29:27;6.67;;;4.43;;
38901;SDS011;24661;53.566;9.910;2023-08-06T05:31:53;6.63;;;5.30;;
38901;SDS011;24661;53.566;9.910;2023-08-06T05:34:18;9.20;;;5.17;;
38901;SDS011;24661;53.566;9.910;2023-08-06T05:36:44;8.03;;;5.37;;
38901;SDS011;24661;53.566;9.910;2023-08-06T05:39:10;7.33;;;5.30;;
38901;SDS011;24661;53.566;9.910;2023-08-06T05:41:36;7.13;;;5.70;;
38901;SDS011;24661;53.566;9.910;2023-08-06T05:44:02;9.17;;;5.50;;
38901;SDS011;24661;53.566;9.910;2023-08-06T05:46:28;9.47;;;5.97;;
38901;SDS011;24661;53.566;9.910;2023-08-06T05:48:53;9.77;;;6.47;;
38901;SDS011;24661;53.566;9.910;2023-08-06T05:51:19;6.50;;;5.20;;
38901;SDS011;24661;53.566;9.910;2023-08-06T05:53:45;10.87;;;5.20;;
38901;SDS011;24661;53.566;9.910;2023-08-06T05:56:11;11.93;;;5.17;;
38901;SDS011;24661;53.566;9.910;2023-08-06T05:58:37;8.93;;;4.97;;
38901;SDS011;24661;53.566;9.910;2023-08-06T06:01:03;7.80;;;4.93;;
38901;SDS011;24661;53.566;9.910;2023-08-06T06:03:28;8.57;;;5.23;;
38901;SDS011;24661;53.566;9.910;2023-08-06T06:05:54;7.10;;;5.07;;
38901;SDS011;24661;53.566;9.910;2023-08-06T06:08:19;7.60;;;5.50;;
38901;SDS011;24661;53.566;9.910;2023-08-06T06:10:45;7.70;;;5.30;;
38901;SDS011;24661;53.566;9.910;2023-08-06T06:13:11;7.33;;;5.33;;
38901;SDS011;24661;53.566;9.910;2023-08-06T06:15:36;7.77;;;6.13;;
38901;SDS011;24661;53.566;9.910;2023-08-06T06:18:03;9.00;;;6.10;;
38901;SDS011;24661;53.566;9.910;2023-08-06T06:20:28;10.87;;;6.23;;
38901;SDS011;24661;53.566;9.910;2023-08-06T06:22:54;5.47;;;4.83;;
38901;SDS011;24661;53.566;9.910;2023-08-06T06:25:19;9.03;;;5.20;;
38901;SDS011;24661;53.566;9.910;2023-08-06T06:27:45;8.83;;;5.77;;
38901;SDS011;24661;53.566;9.910;2023-08-06T06:30:10;8.87;;;5.47;;
38901;SDS011;24661;53.566;9.910;2023-08-06T06:32:37;7.47;;;6.17;;
38901;SDS011;24661;53.566;9.910;2023-08-06T06:35:03;7.30;;;5.03;;
38901;SDS011;24661;53.566;9.910;2023-08-06T06:37:29;9.17;;;6.67;;
38901;SDS011;24661;53.566;9.910;2023-08-06T06:39:55;10.07;;;5.60;;
38901;SDS011;24661;53.566;9.910;2023-08-06T06:42:20;9.30;;;5.20;;
38901;SDS011;24661;53.566;9.910;2023-08-06T06:44:47;8.87;;;5.23;;
38901;SDS011;24661;53.566;9.910;2023-08-06T06:47:13;6.57;;;5.50;;
38901;SDS011;24661;53.566;9.910;2023-08-06T06:49:39;7.43;;;6.23;;
38901;SDS011;24661;53.566;9.910;2023-08-06T06:52:05;8.73;;;6.00;;
38901;SDS011;24661;53.566;9.910;2023-08-06T06:54:31;9.30;;;6.77;;
38901;SDS011;24661;53.566;9.910;2023-08-06T06:56:56;12.70;;;6.23;;
38901;SDS011;24661;53.566;9.910;2023-08-06T06:59:22;7.43;;;5.83;;
38901;SDS011;24661;53.566;9.910;2023-08-06T07:01:48;6.97;;;5.27;;
38901;SDS011;24661;53.566;9.910;2023-08-06T07:04:13;17.80;;;5.70;;
38901;SDS011;24661;53.566;9.910;2023-08-06T07:06:39;7.00;;;5.20;;
38901;SDS011;24661;53.566;9.910;2023-08-06T07:09:05;8.67;;;6.03;;
38901;SDS011;24661;53.566;9.910;2023-08-06T07:11:30;13.40;;;6.20;;
38901;SDS011;24661;53.566;9.910;2023-08-06T07:13:56;8.27;;;5.47;;
38901;SDS011;24661;53.566;9.910;2023-08-06T07:16:25;11.37;;;5.57;;
38901;SDS011;24661;53.566;9.910;2023-08-06T07:18:52;13.40;;;5.53;;
38901;SDS011;24661;53.566;9.910;2023-08-06T07:21:19;10.33;;;6.23;;
38901;SDS011;24661;53.566;9.910;2023-08-06T07:23:45;11.77;;;7.23;;
38901;SDS011;24661;53.566;9.910;2023-08-06T07:26:11;8.50;;;5.73;;
38901;SDS011;24661;53.566;9.910;2023-08-06T07:28:36;7.57;;;5.93;;
38901;SDS011;24661;53.566;9.910;2023-08-06T07:31:02;10.03;;;6.13;;
38901;SDS011;24661;53.566;9.910;2023-08-06T07:33:28;9.53;;;5.90;;
38901;SDS011;24661;53.566;9.910;2023-08-06T07:35:54;7.77;;;5.57;;
38901;SDS011;24661;53.566;9.910;2023-08-06T07:38:20;11.13;;;6.50;;
38901;SDS011;24661;53.566;9.910;2023-08-06T07:40:46;6.27;;;4.60;;
38901;SDS011;24661;53.566;9.910;2023-08-06T07:43:11;11.03;;;6.50;;
38901;SDS011;24661;53.566;9.910;2023-08-06T07:45:37;8.90;;;5.67;;
38901;SDS011;24661;53.566;9.910;2023-08-06T07:48:03;7.90;;;6.00;;
38901;SDS011;24661;53.566;9.910;2023-08-06T07:50:29;6.57;;;5.60;;
38901;SDS011;24661;53.566;9.910;2023-08-06T07:52:55;7.47;;;5.83;;
38901;SDS011;24661;53.566;9.910;2023-08-06T07:55:21;12.87;;;6.37;;
38901;SDS011;24661;53.566;9.910;2023-08-06T07:57:46;8.23;;;5.63;;
38901;SDS011;24661;53.566;9.910;2023-08-06T08:00:12;9.27;;;6.00;;
38901;SDS011;24661;53.566;9.910;2023-08-06T08:02:38;9.40;;;5.77;;
38901;SDS011;24661;53.566;9.910;2023-08-06T08:05:03;10.57;;;6.00;;
38901;SDS011;24661;53.566;9.910;2023-08-06T08:07:29;11.30;;;7.33;;
38901;SDS011;24661;53.566;9.910;2023-08-06T08:09:56;9.90;;;6.10;;
38901;SDS011;24661;53.566;9.910;2023-08-06T08:12:21;8.00;;;5.90;;
38901;SDS011;24661;53.566;9.910;2023-08-06T08:14:47;10.83;;;5.97;;
38901;SDS011;24661;53.566;9.910;2023-08-06T08:17:13;6.57;;;5.23;;
38901;SDS011;24661;53.566;9.910;2023-08-06T08:19:39;9.93;;;5.93;;
38901;SDS011;24661;53.566;9.910;2023-08-06T08:22:06;8.47;;;5.30;;
38901;SDS011;24661;53.566;9.910;2023-08-06T08:24:31;7.53;;;5.63;;
38901;SDS011;24661;53.566;9.910;2023-08-06T08:26:57;9.67;;;5.53;;
38901;SDS011;24661;53.566;9.910;2023-08-06T08:29:22;8.47;;;5.10;;
38901;SDS011;24661;53.566;9.910;2023-08-06T08:31:48;9.30;;;5.67;;
38901;SDS011;24661;53.566;9.910;2023-08-06T08:34:18;12.80;;;5.30;;
38901;SDS011;24661;53.566;9.910;2023-08-06T08:36:44;10.47;;;6.57;;
38901;SDS011;24661;53.566;9.910;2023-08-06T08:39:12;8.63;;;5.73;;
38901;SDS011;24661;53.566;9.910;2023-08-06T08:41:38;9.63;;;5.63;;
38901;SDS011;24661;53.566;9.910;2023-08-06T08:44:04;10.30;;;5.80;;
38901;SDS011;24661;53.566;9.910;2023-08-06T08:46:34;7.37;;;5.83;;
38901;SDS011;24661;53.566;9.910;2023-08-06T08:49:03;10.90;;;6.40;;
38901;SDS011;24661;53.566;9.910;2023-08-06T08:51:29;8.57;;;5.60;;
38901;SDS011;24661;53.566;9.910;2023-08-06T08:53:56;9.60;;;5.40;;
38901;SDS011;24661;53.566;9.910;2023-08-06T08:56:22;11.33;;;5.73;;
38901;SDS011;24661;53.566;9.910;2023-08-06T08:58:49;7.43;;;5.67;;
38901;SDS011;24661;53.566;9.910;2023-08-06T09:01:18;9.37;;;5.47;;
38901;SDS011;24661;53.566;9.910;2023-08-06T09:03:45;9.30;;;5.30;;
38901;SDS011;24661;53.566;9.910;2023-08-06T09:06:12;10.30;;;5.60;;
38901;SDS011;24661;53.566;9.910;2023-08-06T09:08:43;9.77;;;5.40;;
38901;SDS011;24661;53.566;9.910;2023-08-06T09:11:16;7.43;;;5.40;;
38901;SDS011;24661;53.566;9.910;2023-08-06T09:13:45;6.90;;;4.90;;
38901;SDS011;24661;53.566;9.910;2023-08-06T09:16:12;7.57;;;5.57;;
38901;SDS011;24661;53.566;9.910;2023-08-06T09:18:38;13.63;;;5.17;;
38901;SDS011;24661;53.566;9.910;2023-08-06T09:21:05;10.50;;;5.37;;
38901;SDS011;24661;53.566;9.910;2023-08-06T09:23:31;7.83;;;4.73;;
38901;SDS011;24661;53.566;9.910;2023-08-06T09:25:58;8.07;;;5.30;;
38901;SDS011;24661;53.566;9.910;2023-08-06T09:28:24;10.53;;;5.63;;
38901;SDS011;24661;53.566;9.910;2023-08-06T09:30:50;10.03;;;6.33;;
38901;SDS011;24661;53.566;9.910;2023-08-06T09:33:18;8.70;;;6.13;;
38901;SDS011;24661;53.566;9.910;2023-08-06T09:35:45;8.57;;;5.10;;
38901;SDS011;24661;53.566;9.910;2023-08-06T09:38:11;14.80;;;5.90;;
38901;SDS011;24661;53.566;9.910;2023-08-06T09:40:38;8.17;;;5.27;;
38901;SDS011;24661;53.566;9.910;2023-08-06T09:43:04;7.70;;;5.57;;
38901;SDS011;24661;53.566;9.910;2023-08-06T09:45:36;10.43;;;5.63;;
38901;SDS011;24661;53.566;9.910;2023-08-06T09:48:03;8.50;;;5.37;;
38901;SDS011;24661;53.566;9.910;2023-08-06T09:50:33;9.73;;;5.87;;
38901;SDS011;24661;53.566;9.910;2023-08-06T09:53:02;5.20;;;4.30;;
38901;SDS011;24661;53.566;9.910;2023-08-06T09:55:31;6.77;;;5.40;;
38901;SDS011;24661;53.566;9.910;2023-08-06T09:57:58;6.33;;;5.07;;
38901;SDS011;24661;53.566;9.910;2023-08-06T10:00:24;16.67;;;8.00;;
38901;SDS011;24661;53.566;9.910;2023-08-06T10:02:51;6.97;;;5.37;;
38901;SDS011;24661;53.566;9.910;2023-08-06T10:05:21;11.20;;;6.27;;
38901;SDS011;24661;53.566;9.910;2023-08-06T10:07:47;8.30;;;4.93;;
38901;SDS011;24661;53.566;9.910;2023-08-06T10:10:14;8.70;;;4.50;;
38901;SDS011;24661;53.566;9.910;2023-08-06T10:12:40;5.27;;;4.47;;
38901;SDS011;24661;53.566;9.910;2023-08-06T10:15:15;12.80;;;5.37;;
38901;SDS011;24661;53.566;9.910;2023-08-06T10:17:45;9.37;;;5.77;;
38901;SDS011;24661;53.566;9.910;2023-08-06T10:20:12;8.70;;;4.67;;
38901;SDS011;24661;53.566;9.910;2023-08-06T10:22:42;5.43;;;4.30;;
38901;SDS011;24661;53.566;9.910;2023-08-06T10:25:09;10.10;;;5.90;;
38901;SDS011;24661;53.566;9.910;2023-08-06T10:27:37;6.57;;;4.83;;
38901;SDS011;24661;53.566;9.910;2023-08-06T10:30:22;7.20;;;4.43;;
38901;SDS011;24661;53.566;9.910;2023-08-06T10:32:57;7.67;;;4.60;;
38901;SDS011;24661;53.566;9.910;2023-08-06T10:35:28;5.40;;;4.90;;
38901;SDS011;24661;53.566;9.910;2023-08-06T10:38:08;5.87;;;4.73;;
38901;SDS011;24661;53.566;9.910;2023-08-06T10:40:42;7.27;;;5.13;;
38901;SDS011;24661;53.566;9.910;2023-08-06T10:43:25;7.87;;;5.67;;
38901;SDS011;24661;53.566;9.910;2023-08-06T10:45:52;7.97;;;5.90;;
38901;SDS011;24661;53.566;9.910;2023-08-06T10:48:30;6.30;;;4.70;;
38901;SDS011;24661;53.566;9.910;2023-08-06T10:50:59;11.33;;;5.40;;
38901;SDS011;24661;53.566;9.910;2023-08-06T10:53:26;6.97;;;4.83;;
38901;SDS011;24661;53.566;9.910;2023-08-06T10:55:51;6.03;;;4.80;;
38901;SDS011;24661;53.566;9.910;2023-08-06T10:58:17;8.00;;;4.87;;
38901;SDS011;24661;53.566;9.910;2023-08-06T11:00:42;7.93;;;4.77;;
38901;SDS011;24661;53.566;9.910;2023-08-06T11:03:08;10.80;;;4.77;;
38901;SDS011;24661;53.566;9.910;2023-08-06T11:05:35;7.40;;;4.50;;
38901;SDS011;24661;53.566;9.910;2023-08-06T11:08:00;5.93;;;5.33;;
38901;SDS011;24661;53.566;9.910;2023-08-06T11:10:26;5.23;;;4.73;;
38901;SDS011;24661;53.566;9.910;2023-08-06T11:12:52;6.60;;;4.17;;
38901;SDS011;24661;53.566;9.910;2023-08-06T11:15:19;6.20;;;4.53;;
38901;SDS011;24661;53.566;9.910;2023-08-06T11:17:45;6.00;;;4.27;;
38901;SDS011;24661;53.566;9.910;2023-08-06T11:20:12;6.93;;;4.73;;
38901;SDS011;24661;53.566;9.910;2023-08-06T11:22:38;4.73;;;4.27;;
38901;SDS011;24661;53.566;9.910;2023-08-06T11:25:05;5.33;;;4.60;;
38901;SDS011;24661;53.566;9.910;2023-08-06T11:27:32;7.37;;;5.50;;
38901;SDS011;24661;53.566;9.910;2023-08-06T11:29:57;7.30;;;4.10;;
38901;SDS011;24661;53.566;9.910;2023-08-06T11:32:23;6.20;;;4.53;;
38901;SDS011;24661;53.566;9.910;2023-08-06T11:34:49;7.93;;;4.60;;
38901;SDS011;24661;53.566;9.910;2023-08-06T11:37:15;6.40;;;4.77;;
38901;SDS011;24661;53.566;9.910;2023-08-06T11:39:46;7.17;;;5.17;;
38901;SDS011;24661;53.566;9.910;2023-08-06T11:42:13;4.87;;;4.37;;
38901;SDS011;24661;53.566;9.910;2023-08-06T11:44:40;5.37;;;4.37;;
38901;SDS011;24661;53.566;9.910;2023-08-06T11:47:11;4.63;;;4.23;;
38901;SDS011;24661;53.566;9.910;2023-08-06T11:49:42;4.47;;;4.07;;
38901;SDS011;24661;53.566;9.910;2023-08-06T11:52:10;6.80;;;4.77;;
38901;SDS011;24661;53.566;9.910;2023-08-06T11:54:39;6.83;;;4.77;;
38901;SDS011;24661;53.566;9.910;2023-08-06T11:57:05;12.13;;;5.20;;
38901;SDS011;24661;53.566;9.910;2023-08-06T11:59:31;5.47;;;4.77;;
38901;SDS011;24661;53.566;9.910;2023-08-06T12:01:57;5.57;;;4.47;;
38901;SDS011;24661;53.566;9.910;2023-08-06T12:04:25;5.33;;;4.63;;
38901;SDS011;24661;53.566;9.910;2023-08-06T12:06:50;6.47;;;5.47;;
38901;SDS011;24661;53.566;9.910;2023-08-06T12:09:16;5.97;;;5.07;;
38901;SDS011;24661;53.566;9.910;2023-08-06T12:11:43;5.40;;;3.97;;
38901;SDS011;24661;53.566;9.910;2023-08-06T12:14:09;5.90;;;4.40;;
38901;SDS011;24661;53.566;9.910;2023-08-06T12:16:35;5.97;;;4.37;;
38901;SDS011;24661;53.566;9.910;2023-08-06T12:19:01;7.17;;;5.20;;
38901;SDS011;24661;53.566;9.910;2023-08-06T12:21:27;5.97;;;4.77;;
38901;SDS011;24661;53.566;9.910;2023-08-06T12:23:52;5.30;;;4.43;;
38901;SDS011;24661;53.566;9.910;2023-08-06T12:26:18;5.80;;;4.10;;
38901;SDS011;24661;53.566;9.910;2023-08-06T12:28:43;4.87;;;4.37;;
38901;SDS011;24661;53.566;9.910;2023-08-06T12:31:09;6.63;;;5.10;;
38901;SDS011;24661;53.566;9.910;2023-08-06T12:33:35;8.10;;;5.33;;
38901;SDS011;24661;53.566;9.910;2023-08-06T12:36:00;10.43;;;6.00;;
38901;SDS011;24661;53.566;9.910;2023-08-06T12:38:26;5.90;;;4.33;;
38901;SDS011;24661;53.566;9.910;2023-08-06T12:40:51;6.80;;;4.87;;
38901;SDS011;24661;53.566;9.910;2023-08-06T12:43:17;10.13;;;5.37;;
38901;SDS011;24661;53.566;9.910;2023-08-06T12:45:43;6.63;;;5.10;;
38901;SDS011;24661;53.566;9.910;2023-08-06T12:48:08;5.43;;;4.37;;
38901;SDS011;24661;53.566;9.910;2023-08-06T12:50:34;6.80;;;4.73;;
38901;SDS011;24661;53.566;9.910;2023-08-06T12:53:00;9.47;;;5.23;;
38901;SDS011;24661;53.566;9.910;2023-08-06T12:55:26;7.03;;;5.03;;
38901;SDS011;24661;53.566;9.910;2023-08-06T12:57:51;5.30;;;4.30;;
38901;SDS011;24661;53.566;9.910;2023-08-06T13:00:17;6.07;;;4.50;;
38901;SDS011;24661;53.566;9.910;2023-08-06T13:02:43;5.07;;;4.57;;
38901;SDS011;24661;53.566;9.910;2023-08-06T13:05:08;8.33;;;4.87;;
38901;SDS011;24661;53.566;9.910;2023-08-06T13:07:35;5.37;;;3.73;;
38901;SDS011;24661;53.566;9.910;2023-08-06T13:10:01;6.67;;;4.03;;
38901;SDS011;24661;53.566;9.910;2023-08-06T13:12:27;5.60;;;4.10;;
38901;SDS011;24661;53.566;9.910;2023-08-06T13:14:53;8.43;;;5.20;;
38901;SDS011;24661;53.566;9.910;2023-08-06T13:17:23;5.60;;;3.90;;
38901;SDS011;24661;53.566;9.910;2023-08-06T13:19:49;5.87;;;4.07;;
38901;SDS011;24661;53.566;9.910;2023-08-06T13:22:14;5.60;;;4.63;;
38901;SDS011;24661;53.566;9.910;2023-08-06T13:24:40;5.90;;;3.60;;
38901;SDS011;24661;53.566;9.910;2023-08-06T13:27:06;6.43;;;4.13;;
38901;SDS011;24661;53.566;9.910;2023-08-06T13:29:31;5.70;;;4.10;;
38901;SDS011;24661;53.566;9.910;2023-08-06T13:31:57;5.20;;;4.07;;
38901;SDS011;24661;53.566;9.910;2023-08-06T13:34:23;9.03;;;4.87;;
38901;SDS011;24661;53.566;9.910;2023-08-06T13:36:48;4.60;;;4.10;;
38901;SDS011;24661;53.566;9.910;2023-08-06T13:39:15;5.53;;;4.13;;
38901;SDS011;24661;53.566;9.910;2023-08-06T13:41:42;6.17;;;4.33;;
38901;SDS011;24661;53.566;9.910;2023-08-06T13:44:08;6.23;;;3.93;;
38901;SDS011;24661;53.566;9.910;2023-08-06T13:46:35;7.07;;;4.37;;
38901;SDS011;24661;53.566;9.910;2023-08-06T13:55:45;5.07;;;3.70;;
38901;SDS011;24661;53.566;9.910;2023-08-06T13:58:11;7.03;;;4.20;;
38901;SDS011;24661;53.566;9.910;2023-08-06T14:00:36;4.57;;;3.37;;
38901;SDS011;24661;53.566;9.910;2023-08-06T14:03:02;5.43;;;3.37;;
38901;SDS011;24661;53.566;9.910;2023-08-06T14:05:27;4.83;;;3.00;;
38901;SDS011;24661;53.566;9.910;2023-08-06T14:07:53;5.63;;;3.10;;
38901;SDS011;24661;53.566;9.910;2023-08-06T14:10:19;4.90;;;3.37;;
38901;SDS011;24661;53.566;9.910;2023-08-06T14:12:44;4.53;;;2.77;;
38901;SDS011;24661;53.566;9.910;2023-08-06T14:15:10;4.00;;;3.37;;
38901;SDS011;24661;53.566;9.910;2023-08-06T14:17:36;5.37;;;3.20;;
38901;SDS011;24661;53.566;9.910;2023-08-06T14:20:03;3.53;;;2.87;;
38901;SDS011;24661;53.566;9.910;2023-08-06T14:22:29;5.63;;;3.50;;
38901;SDS011;24661;53.566;9.910;2023-08-06T14:24:56;6.83;;;3.03;;
38901;SDS011;24661;53.566;9.910;2023-08-06T14:27:23;2.87;;;2.67;;
38901;SDS011;24661;53.566;9.910;2023-08-06T14:29:48;4.70;;;2.50;;
38901;SDS011;24661;53.566;9.910;2023-08-06T14:32:14;3.00;;;2.70;;
38901;SDS011;24661;53.566;9.910;2023-08-06T14:34:42;3.87;;;2.67;;
38901;SDS011;24661;53.566;9.910;2023-08-06T14:37:11;4.83;;;3.03;;
38901;SDS011;24661;53.566;9.910;2023-08-06T14:39:37;5.40;;;3.67;;
38901;SDS011;24661;53.566;9.910;2023-08-06T14:42:03;5.03;;;3.70;;
38901;SDS011;24661;53.566;9.910;2023-08-06T14:44:29;6.60;;;3.20;;
38901;SDS011;24661;53.566;9.910;2023-08-06T14:46:55;4.73;;;3.03;;
38901;SDS011;24661;53.566;9.910;2023-08-06T14:49:21;4.07;;;2.80;;
38901;SDS011;24661;53.566;9.910;2023-08-06T14:51:46;5.17;;;2.93;;
38901;SDS011;24661;53.566;9.910;2023-08-06T14:54:12;5.30;;;2.90;;
38901;SDS011;24661;53.566;9.910;2023-08-06T14:56:37;4.27;;;2.83;;